sensor_id;sensor_type;location;lat;lon;timestamp;P1;durP1;ratioP1;P2;durP2;ratioP2
37203;SDS011;23098;48.054;10.636;2024-02-28T00:00:49;28.60;;;15.55;;
37203;SDS011;23098;48.054;10.636;2024-02-28T00:03:16;32.60;;;15.52;;
37203;SDS011;23098;48.054;10.636;2024-02-28T00:05:42;34.33;;;16.67;;
37203;SDS011;23098;48.054;10.636;2024-02-28T00:08:07;30.33;;;15.63;;
37203;SDS011;23098;48.054;10.636;2024-02-28T00:10:33;31.48;;;16.10;;
37203;SDS011;23098;48.054;10.636;2024-02-28T00:12:59;28.02;;;15.35;;
37203;SDS011;23098;48.054;10.636;2024-02-28T00:15:24;30.17;;;16.10;;
37203;SDS011;23098;48.054;10.636;2024-02-28T00:17:51;30.17;;;16.27;;
37203;SDS011;23098;48.054;10.636;2024-02-28T00:20:18;27.73;;;15.40;;
37203;SDS011;23098;48.054;10.636;2024-02-28T00:22:43;29.70;;;15.27;;
37203;SDS011;23098;48.054;10.636;2024-02-28T00:25:09;33.95;;;16.50;;
37203;SDS011;23098;48.054;10.636;2024-02-28T00:27:36;31.40;;;16.15;;
37203;SDS011;23098;48.054;10.636;2024-02-28T00:30:05;34.53;;;16.40;;
37203;SDS011;23098;48.054;10.636;2024-02-28T00:32:31;32.05;;;17.27;;
37203;SDS011;23098;48.054;10.636;2024-02-28T00:34:57;34.53;;;17.90;;
37203;SDS011;23098;48.054;10.636;2024-02-28T00:37:22;31.08;;;17.33;;
37203;SDS011;23098;48.054;10.636;2024-02-28T00:39:49;37.13;;;18.05;;
37203;SDS011;23098;48.054;10.636;2024-02-28T00:42:15;37.00;;;18.27;;
37203;SDS011;23098;48.054;10.636;2024-02-28T00:44:40;35.42;;;18.02;;
37203;SDS011;23098;48.054;10.636;2024-02-28T00:47:07;36.85;;;18.63;;
37203;SDS011;23098;48.054;10.636;2024-02-28T00:49:33;37.72;;;18.50;;
37203;SDS011;23098;48.054;10.636;2024-02-28T00:52:00;37.15;;;18.65;;
37203;SDS011;23098;48.054;10.636;2024-02-28T00:54:26;37.75;;;18.55;;
37203;SDS011;23098;48.054;10.636;2024-02-28T00:56:52;37.85;;;18.55;;
37203;SDS011;23098;48.054;10.636;2024-02-28T00:59:17;41.35;;;18.02;;
37203;SDS011;23098;48.054;10.636;2024-02-28T01:01:43;39.92;;;18.83;;
37203;SDS011;23098;48.054;10.636;2024-02-28T01:04:08;38.72;;;18.02;;
37203;SDS011;23098;48.054;10.636;2024-02-28T01:06:34;34.78;;;17.73;;
37203;SDS011;23098;48.054;10.636;2024-02-28T01:08:59;37.92;;;18.17;;
37203;SDS011;23098;48.054;10.636;2024-02-28T01:11:25;41.08;;;17.75;;
37203;SDS011;23098;48.054;10.636;2024-02-28T01:13:50;37.10;;;18.45;;
37203;SDS011;23098;48.054;10.636;2024-02-28T01:16:16;34.60;;;18.15;;
37203;SDS011;23098;48.054;10.636;2024-02-28T01:18:42;34.45;;;17.95;;
37203;SDS011;23098;48.054;10.636;2024-02-28T01:21:07;34.95;;;18.02;;
37203;SDS011;23098;48.054;10.636;2024-02-28T01:23:33;36.85;;;19.05;;
37203;SDS011;23098;48.054;10.636;2024-02-28T01:25:58;36.75;;;18.58;;
37203;SDS011;23098;48.054;10.636;2024-02-28T01:28:24;38.42;;;18.90;;
37203;SDS011;23098;48.054;10.636;2024-02-28T01:30:49;42.40;;;19.67;;
37203;SDS011;23098;48.054;10.636;2024-02-28T01:33:15;35.83;;;18.45;;
37203;SDS011;23098;48.054;10.636;2024-02-28T01:35:40;34.95;;;17.55;;
37203;SDS011;23098;48.054;10.636;2024-02-28T01:38:06;33.85;;;18.58;;
37203;SDS011;23098;48.054;10.636;2024-02-28T01:40:31;42.00;;;18.83;;
37203;SDS011;23098;48.054;10.636;2024-02-28T01:43:03;36.20;;;18.20;;
37203;SDS011;23098;48.054;10.636;2024-02-28T01:45:32;40.65;;;19.20;;
37203;SDS011;23098;48.054;10.636;2024-02-28T01:47:57;36.13;;;17.63;;
37203;SDS011;23098;48.054;10.636;2024-02-28T01:50:23;38.15;;;17.98;;
37203;SDS011;23098;48.054;10.636;2024-02-28T01:52:48;38.05;;;18.85;;
37203;SDS011;23098;48.054;10.636;2024-02-28T01:55:14;37.90;;;18.67;;
37203;SDS011;23098;48.054;10.636;2024-02-28T01:57:40;38.05;;;17.88;;
37203;SDS011;23098;48.054;10.636;2024-02-28T02:00:06;37.15;;;18.40;;
37203;SDS011;23098;48.054;10.636;2024-02-28T02:02:33;36.67;;;18.55;;
37203;SDS011;23098;48.054;10.636;2024-02-28T02:04:59;42.13;;;19.15;;
37203;SDS011;23098;48.054;10.636;2024-02-28T02:07:25;41.53;;;19.30;;
37203;SDS011;23098;48.054;10.636;2024-02-28T02:09:51;44.17;;;20.30;;
37203;SDS011;23098;48.054;10.636;2024-02-28T02:12:17;39.47;;;20.15;;
37203;SDS011;23098;48.054;10.636;2024-02-28T02:14:47;42.45;;;19.58;;
37203;SDS011;23098;48.054;10.636;2024-02-28T02:17:15;42.08;;;20.25;;
37203;SDS011;23098;48.054;10.636;2024-02-28T02:19:41;43.63;;;20.50;;
37203;SDS011;23098;48.054;10.636;2024-02-28T02:22:08;42.70;;;20.52;;
37203;SDS011;23098;48.054;10.636;2024-02-28T02:24:33;38.30;;;18.60;;
37203;SDS011;23098;48.054;10.636;2024-02-28T02:26:59;36.08;;;18.80;;
37203;SDS011;23098;48.054;10.636;2024-02-28T02:29:25;44.03;;;19.30;;
37203;SDS011;23098;48.054;10.636;2024-02-28T02:31:52;39.05;;;19.02;;
37203;SDS011;23098;48.054;10.636;2024-02-28T02:34:18;40.17;;;18.73;;
37203;SDS011;23098;48.054;10.636;2024-02-28T02:36:43;40.67;;;18.70;;
37203;SDS011;23098;48.054;10.636;2024-02-28T02:39:09;42.88;;;19.23;;
37203;SDS011;23098;48.054;10.636;2024-02-28T02:41:34;41.20;;;19.45;;
37203;SDS011;23098;48.054;10.636;2024-02-28T02:44:00;36.90;;;18.42;;
37203;SDS011;23098;48.054;10.636;2024-02-28T02:46:25;40.78;;;19.77;;
37203;SDS011;23098;48.054;10.636;2024-02-28T02:48:51;34.13;;;17.50;;
37203;SDS011;23098;48.054;10.636;2024-02-28T02:51:18;36.45;;;18.02;;
37203;SDS011;23098;48.054;10.636;2024-02-28T02:53:44;38.70;;;19.20;;
37203;SDS011;23098;48.054;10.636;2024-02-28T02:56:09;39.33;;;18.27;;
37203;SDS011;23098;48.054;10.636;2024-02-28T02:58:35;34.85;;;18.70;;
37203;SDS011;23098;48.054;10.636;2024-02-28T03:01:00;41.03;;;19.27;;
37203;SDS011;23098;48.054;10.636;2024-02-28T03:03:26;42.88;;;19.45;;
37203;SDS011;23098;48.054;10.636;2024-02-28T03:05:51;40.65;;;18.60;;
37203;SDS011;23098;48.054;10.636;2024-02-28T03:08:17;40.10;;;19.58;;
37203;SDS011;23098;48.054;10.636;2024-02-28T03:10:42;38.72;;;18.83;;
37203;SDS011;23098;48.054;10.636;2024-02-28T03:13:08;43.45;;;19.63;;
37203;SDS011;23098;48.054;10.636;2024-02-28T03:15:34;42.25;;;18.52;;
37203;SDS011;23098;48.054;10.636;2024-02-28T03:17:59;41.63;;;18.42;;
37203;SDS011;23098;48.054;10.636;2024-02-28T03:20:25;37.80;;;18.13;;
37203;SDS011;23098;48.054;10.636;2024-02-28T03:22:51;39.88;;;18.75;;
37203;SDS011;23098;48.054;10.636;2024-02-28T03:25:16;39.55;;;19.38;;
37203;SDS011;23098;48.054;10.636;2024-02-28T03:27:42;41.55;;;20.10;;
37203;SDS011;23098;48.054;10.636;2024-02-28T03:30:07;38.55;;;18.48;;
37203;SDS011;23098;48.054;10.636;2024-02-28T03:32:33;38.00;;;18.40;;
37203;SDS011;23098;48.054;10.636;2024-02-28T03:34:59;41.83;;;19.88;;
37203;SDS011;23098;48.054;10.636;2024-02-28T03:37:25;39.25;;;17.13;;
37203;SDS011;23098;48.054;10.636;2024-02-28T03:39:50;38.88;;;19.13;;
37203;SDS011;23098;48.054;10.636;2024-02-28T03:42:16;38.13;;;18.55;;
37203;SDS011;23098;48.054;10.636;2024-02-28T03:44:42;42.78;;;20.08;;
37203;SDS011;23098;48.054;10.636;2024-02-28T03:47:08;41.60;;;19.85;;
37203;SDS011;23098;48.054;10.636;2024-02-28T03:49:34;43.58;;;20.63;;
37203;SDS011;23098;48.054;10.636;2024-02-28T03:51:59;40.38;;;20.25;;
37203;SDS011;23098;48.054;10.636;2024-02-28T03:54:26;45.70;;;20.25;;
37203;SDS011;23098;48.054;10.636;2024-02-28T03:56:52;43.22;;;20.70;;
37203;SDS011;23098;48.054;10.636;2024-02-28T03:59:17;41.15;;;20.10;;
37203;SDS011;23098;48.054;10.636;2024-02-28T04:01:43;47.20;;;20.88;;
37203;SDS011;23098;48.054;10.636;2024-02-28T04:04:08;45.17;;;20.00;;
37203;SDS011;23098;48.054;10.636;2024-02-28T04:06:34;40.90;;;20.25;;
37203;SDS011;23098;48.054;10.636;2024-02-28T04:08:59;45.47;;;20.17;;
37203;SDS011;23098;48.054;10.636;2024-02-28T04:11:25;44.53;;;20.00;;
37203;SDS011;23098;48.054;10.636;2024-02-28T04:13:51;42.75;;;20.70;;
37203;SDS011;23098;48.054;10.636;2024-02-28T04:16:16;40.80;;;20.02;;
37203;SDS011;23098;48.054;10.636;2024-02-28T04:18:42;39.58;;;19.92;;
37203;SDS011;23098;48.054;10.636;2024-02-28T04:21:08;44.15;;;22.33;;
37203;SDS011;23098;48.054;10.636;2024-02-28T04:23:33;40.17;;;19.98;;
37203;SDS011;23098;48.054;10.636;2024-02-28T04:25:59;42.03;;;20.50;;
37203;SDS011;23098;48.054;10.636;2024-02-28T04:28:25;42.50;;;19.95;;
37203;SDS011;23098;48.054;10.636;2024-02-28T04:30:50;42.67;;;20.15;;
37203;SDS011;23098;48.054;10.636;2024-02-28T04:33:16;46.95;;;20.08;;
37203;SDS011;23098;48.054;10.636;2024-02-28T04:35:41;43.50;;;19.95;;
37203;SDS011;23098;48.054;10.636;2024-02-28T04:38:07;40.17;;;20.27;;
37203;SDS011;23098;48.054;10.636;2024-02-28T04:40:32;42.33;;;21.35;;
37203;SDS011;23098;48.054;10.636;2024-02-28T04:42:58;42.33;;;20.27;;
37203;SDS011;23098;48.054;10.636;2024-02-28T04:45:23;41.88;;;19.33;;
37203;SDS011;23098;48.054;10.636;2024-02-28T04:47:49;40.83;;;19.15;;
37203;SDS011;23098;48.054;10.636;2024-02-28T04:50:16;40.47;;;19.58;;
37203;SDS011;23098;48.054;10.636;2024-02-28T04:52:42;37.05;;;18.77;;
37203;SDS011;23098;48.054;10.636;2024-02-28T04:55:07;40.92;;;19.85;;
37203;SDS011;23098;48.054;10.636;2024-02-28T04:57:33;44.10;;;20.45;;
37203;SDS011;23098;48.054;10.636;2024-02-28T04:59:59;43.47;;;20.13;;
37203;SDS011;23098;48.054;10.636;2024-02-28T05:02:24;44.30;;;20.48;;
37203;SDS011;23098;48.054;10.636;2024-02-28T05:04:50;43.80;;;20.58;;
37203;SDS011;23098;48.054;10.636;2024-02-28T05:07:16;42.72;;;18.88;;
37203;SDS011;23098;48.054;10.636;2024-02-28T05:09:42;42.78;;;20.48;;
37203;SDS011;23098;48.054;10.636;2024-02-28T05:12:08;47.13;;;20.50;;
37203;SDS011;23098;48.054;10.636;2024-02-28T05:14:33;40.92;;;19.08;;
37203;SDS011;23098;48.054;10.636;2024-02-28T05:16:59;44.13;;;19.83;;
37203;SDS011;23098;48.054;10.636;2024-02-28T05:19:24;42.55;;;20.23;;
37203;SDS011;23098;48.054;10.636;2024-02-28T05:21:50;44.95;;;19.88;;
37203;SDS011;23098;48.054;10.636;2024-02-28T05:24:15;45.05;;;20.67;;
37203;SDS011;23098;48.054;10.636;2024-02-28T05:26:41;45.88;;;20.23;;
37203;SDS011;23098;48.054;10.636;2024-02-28T05:29:06;44.63;;;22.17;;
37203;SDS011;23098;48.054;10.636;2024-02-28T05:31:33;48.33;;;21.60;;
37203;SDS011;23098;48.054;10.636;2024-02-28T05:33:59;43.40;;;19.65;;
37203;SDS011;23098;48.054;10.636;2024-02-28T05:36:29;46.00;;;20.25;;
37203;SDS011;23098;48.054;10.636;2024-02-28T05:38:55;46.95;;;21.27;;
37203;SDS011;23098;48.054;10.636;2024-02-28T05:41:22;47.35;;;19.58;;
37203;SDS011;23098;48.054;10.636;2024-02-28T05:43:48;46.28;;;20.90;;
37203;SDS011;23098;48.054;10.636;2024-02-28T05:46:17;43.30;;;19.73;;
37203;SDS011;23098;48.054;10.636;2024-02-28T05:48:44;41.97;;;19.33;;
37203;SDS011;23098;48.054;10.636;2024-02-28T05:51:10;45.05;;;20.98;;
37203;SDS011;23098;48.054;10.636;2024-02-28T05:53:38;51.50;;;21.42;;
37203;SDS011;23098;48.054;10.636;2024-02-28T05:56:05;47.08;;;21.15;;
37203;SDS011;23098;48.054;10.636;2024-02-28T05:58:38;48.83;;;20.58;;
37203;SDS011;23098;48.054;10.636;2024-02-28T06:01:04;48.88;;;21.05;;
37203;SDS011;23098;48.054;10.636;2024-02-28T06:03:29;48.10;;;20.30;;
37203;SDS011;23098;48.054;10.636;2024-02-28T06:05:55;47.97;;;21.77;;
37203;SDS011;23098;48.054;10.636;2024-02-28T06:08:22;49.50;;;21.23;;
37203;SDS011;23098;48.054;10.636;2024-02-28T06:10:48;52.03;;;23.17;;
37203;SDS011;23098;48.054;10.636;2024-02-28T06:13:13;50.92;;;22.77;;
37203;SDS011;23098;48.054;10.636;2024-02-28T06:15:39;50.10;;;22.63;;
37203;SDS011;23098;48.054;10.636;2024-02-28T06:18:04;51.90;;;21.98;;
37203;SDS011;23098;48.054;10.636;2024-02-28T06:20:30;50.83;;;22.60;;
37203;SDS011;23098;48.054;10.636;2024-02-28T06:22:56;56.45;;;23.25;;
37203;SDS011;23098;48.054;10.636;2024-02-28T06:25:22;56.05;;;24.00;;
37203;SDS011;23098;48.054;10.636;2024-02-28T06:27:49;55.72;;;23.83;;
37203;SDS011;23098;48.054;10.636;2024-02-28T06:30:14;57.35;;;23.20;;
37203;SDS011;23098;48.054;10.636;2024-02-28T06:32:41;51.17;;;22.73;;
37203;SDS011;23098;48.054;10.636;2024-02-28T06:35:07;45.25;;;20.63;;
37203;SDS011;23098;48.054;10.636;2024-02-28T06:37:33;53.42;;;22.55;;
37203;SDS011;23098;48.054;10.636;2024-02-28T06:39:59;50.00;;;22.33;;
37203;SDS011;23098;48.054;10.636;2024-02-28T06:42:25;53.53;;;22.45;;
37203;SDS011;23098;48.054;10.636;2024-02-28T06:44:51;46.97;;;22.65;;
37203;SDS011;23098;48.054;10.636;2024-02-28T06:47:16;44.47;;;20.75;;
37203;SDS011;23098;48.054;10.636;2024-02-28T06:49:43;49.75;;;21.10;;
37203;SDS011;23098;48.054;10.636;2024-02-28T06:52:09;47.30;;;22.10;;
37203;SDS011;23098;48.054;10.636;2024-02-28T06:54:34;50.08;;;22.50;;
37203;SDS011;23098;48.054;10.636;2024-02-28T06:57:00;49.22;;;21.65;;
37203;SDS011;23098;48.054;10.636;2024-02-28T06:59:26;44.67;;;21.30;;
37203;SDS011;23098;48.054;10.636;2024-02-28T07:01:51;49.83;;;23.25;;
37203;SDS011;23098;48.054;10.636;2024-02-28T07:04:17;46.95;;;20.50;;
37203;SDS011;23098;48.054;10.636;2024-02-28T07:06:42;50.20;;;22.52;;
37203;SDS011;23098;48.054;10.636;2024-02-28T07:09:08;53.35;;;21.30;;
37203;SDS011;23098;48.054;10.636;2024-02-28T07:11:34;44.53;;;20.38;;
37203;SDS011;23098;48.054;10.636;2024-02-28T07:14:03;49.78;;;21.92;;
37203;SDS011;23098;48.054;10.636;2024-02-28T07:16:31;47.03;;;21.00;;
37203;SDS011;23098;48.054;10.636;2024-02-28T07:18:58;43.92;;;19.20;;
37203;SDS011;23098;48.054;10.636;2024-02-28T07:21:25;45.40;;;18.83;;
37203;SDS011;23098;48.054;10.636;2024-02-28T07:23:50;49.08;;;20.88;;
37203;SDS011;23098;48.054;10.636;2024-02-28T07:26:16;46.88;;;20.67;;
37203;SDS011;23098;48.054;10.636;2024-02-28T07:28:41;43.92;;;20.40;;
37203;SDS011;23098;48.054;10.636;2024-02-28T07:31:13;50.92;;;22.08;;
37203;SDS011;23098;48.054;10.636;2024-02-28T07:33:42;51.15;;;21.45;;
37203;SDS011;23098;48.054;10.636;2024-02-28T07:36:08;49.85;;;21.73;;
37203;SDS011;23098;48.054;10.636;2024-02-28T07:38:34;50.10;;;21.95;;
37203;SDS011;23098;48.054;10.636;2024-02-28T07:40:59;55.67;;;22.25;;
37203;SDS011;23098;48.054;10.636;2024-02-28T07:43:25;52.72;;;21.80;;
37203;SDS011;23098;48.054;10.636;2024-02-28T07:45:50;51.42;;;21.40;;
37203;SDS011;23098;48.054;10.636;2024-02-28T07:48:15;60.88;;;23.30;;
37203;SDS011;23098;48.054;10.636;2024-02-28T07:50:43;48.45;;;22.13;;
37203;SDS011;23098;48.054;10.636;2024-02-28T07:53:15;59.08;;;23.98;;
37203;SDS011;23098;48.054;10.636;2024-02-28T07:55:41;51.15;;;23.45;;
37203;SDS011;23098;48.054;10.636;2024-02-28T07:58:06;56.75;;;23.55;;
37203;SDS011;23098;48.054;10.636;2024-02-28T08:00:32;57.72;;;24.00;;
37203;SDS011;23098;48.054;10.636;2024-02-28T08:03:00;56.08;;;23.50;;
37203;SDS011;23098;48.054;10.636;2024-02-28T08:05:26;53.45;;;21.55;;
37203;SDS011;23098;48.054;10.636;2024-02-28T08:07:52;52.25;;;21.23;;
37203;SDS011;23098;48.054;10.636;2024-02-28T08:10:17;58.38;;;23.63;;
37203;SDS011;23098;48.054;10.636;2024-02-28T08:12:43;65.22;;;25.80;;
37203;SDS011;23098;48.054;10.636;2024-02-28T08:15:09;59.47;;;23.75;;
37203;SDS011;23098;48.054;10.636;2024-02-28T08:17:35;68.10;;;28.17;;
37203;SDS011;23098;48.054;10.636;2024-02-28T08:20:01;88.80;;;36.35;;
37203;SDS011;23098;48.054;10.636;2024-02-28T08:22:29;60.25;;;23.85;;
37203;SDS011;23098;48.054;10.636;2024-02-28T08:24:55;73.78;;;29.45;;
37203;SDS011;23098;48.054;10.636;2024-02-28T08:27:21;73.40;;;29.33;;
37203;SDS011;23098;48.054;10.636;2024-02-28T08:29:48;64.00;;;26.35;;
37203;SDS011;23098;48.054;10.636;2024-02-28T08:32:17;67.38;;;26.55;;
37203;SDS011;23098;48.054;10.636;2024-02-28T08:34:44;63.17;;;24.63;;
37203;SDS011;23098;48.054;10.636;2024-02-28T08:37:11;57.92;;;22.88;;
37203;SDS011;23098;48.054;10.636;2024-02-28T08:39:37;59.17;;;22.27;;
37203;SDS011;23098;48.054;10.636;2024-02-28T08:42:02;57.38;;;21.58;;
37203;SDS011;23098;48.054;10.636;2024-02-28T08:44:28;62.10;;;22.60;;
37203;SDS011;23098;48.054;10.636;2024-02-28T08:46:53;55.30;;;22.52;;
37203;SDS011;23098;48.054;10.636;2024-02-28T08:49:19;60.33;;;23.30;;
37203;SDS011;23098;48.054;10.636;2024-02-28T08:51:44;53.58;;;22.20;;
37203;SDS011;23098;48.054;10.636;2024-02-28T08:54:10;53.65;;;21.58;;
37203;SDS011;23098;48.054;10.636;2024-02-28T08:56:35;55.25;;;23.75;;
37203;SDS011;23098;48.054;10.636;2024-02-28T08:59:04;57.22;;;20.45;;
37203;SDS011;23098;48.054;10.636;2024-02-28T09:01:29;61.53;;;22.48;;
37203;SDS011;23098;48.054;10.636;2024-02-28T09:03:55;62.28;;;23.15;;
37203;SDS011;23098;48.054;10.636;2024-02-28T09:06:21;57.25;;;22.58;;
37203;SDS011;23098;48.054;10.636;2024-02-28T09:08:46;61.58;;;22.95;;
37203;SDS011;23098;48.054;10.636;2024-02-28T09:11:12;63.60;;;23.10;;
37203;SDS011;23098;48.054;10.636;2024-02-28T09:13:37;58.58;;;24.08;;
37203;SDS011;23098;48.054;10.636;2024-02-28T09:16:03;56.05;;;22.60;;
37203;SDS011;23098;48.054;10.636;2024-02-28T09:18:29;62.65;;;23.70;;
37203;SDS011;23098;48.054;10.636;2024-02-28T09:20:54;60.00;;;22.15;;
37203;SDS011;23098;48.054;10.636;2024-02-28T09:23:20;57.22;;;22.58;;
37203;SDS011;23098;48.054;10.636;2024-02-28T09:25:46;53.05;;;21.77;;
37203;SDS011;23098;48.054;10.636;2024-02-28T09:28:11;62.63;;;23.10;;
37203;SDS011;23098;48.054;10.636;2024-02-28T09:30:38;58.17;;;22.85;;
37203;SDS011;23098;48.054;10.636;2024-02-28T09:33:04;61.00;;;23.25;;
37203;SDS011;23098;48.054;10.636;2024-02-28T09:35:30;53.08;;;22.00;;
37203;SDS011;23098;48.054;10.636;2024-02-28T09:37:55;54.83;;;20.95;;
37203;SDS011;23098;48.054;10.636;2024-02-28T09:40:21;55.85;;;22.33;;
37203;SDS011;23098;48.054;10.636;2024-02-28T09:42:48;53.22;;;21.98;;
37203;SDS011;23098;48.054;10.636;2024-02-28T09:45:21;52.75;;;21.08;;
37203;SDS011;23098;48.054;10.636;2024-02-28T09:47:47;49.85;;;21.45;;
37203;SDS011;23098;48.054;10.636;2024-02-28T09:50:13;53.15;;;22.05;;
37203;SDS011;23098;48.054;10.636;2024-02-28T09:52:40;50.15;;;20.90;;
37203;SDS011;23098;48.054;10.636;2024-02-28T09:55:06;47.10;;;20.73;;
37203;SDS011;23098;48.054;10.636;2024-02-28T09:57:32;44.35;;;19.58;;
37203;SDS011;23098;48.054;10.636;2024-02-28T09:59:59;53.95;;;23.05;;
37203;SDS011;23098;48.054;10.636;2024-02-28T10:02:27;57.08;;;21.90;;
37203;SDS011;23098;48.054;10.636;2024-02-28T10:04:53;54.00;;;22.23;;
37203;SDS011;23098;48.054;10.636;2024-02-28T10:07:22;48.17;;;20.05;;
37203;SDS011;23098;48.054;10.636;2024-02-28T10:09:48;49.78;;;21.55;;
37203;SDS011;23098;48.054;10.636;2024-02-28T10:12:13;52.90;;;20.80;;
37203;SDS011;23098;48.054;10.636;2024-02-28T10:14:39;57.75;;;22.70;;
37203;SDS011;23098;48.054;10.636;2024-02-28T10:17:05;52.92;;;22.60;;
37203;SDS011;23098;48.054;10.636;2024-02-28T10:19:32;60.00;;;22.63;;
37203;SDS011;23098;48.054;10.636;2024-02-28T10:21:58;59.05;;;23.75;;
37203;SDS011;23098;48.054;10.636;2024-02-28T10:24:24;64.22;;;23.75;;
37203;SDS011;23098;48.054;10.636;2024-02-28T10:26:50;60.25;;;22.70;;
37203;SDS011;23098;48.054;10.636;2024-02-28T10:29:22;55.40;;;22.75;;
37203;SDS011;23098;48.054;10.636;2024-02-28T10:31:48;53.60;;;22.75;;
37203;SDS011;23098;48.054;10.636;2024-02-28T10:34:15;53.08;;;22.35;;
37203;SDS011;23098;48.054;10.636;2024-02-28T10:36:42;49.92;;;20.40;;
37203;SDS011;23098;48.054;10.636;2024-02-28T10:39:10;52.42;;;21.45;;
37203;SDS011;23098;48.054;10.636;2024-02-28T10:41:37;55.00;;;22.08;;
37203;SDS011;23098;48.054;10.636;2024-02-28T10:44:03;52.50;;;21.60;;
37203;SDS011;23098;48.054;10.636;2024-02-28T10:46:30;58.47;;;23.90;;
37203;SDS011;23098;48.054;10.636;2024-02-28T10:48:56;56.03;;;23.25;;
37203;SDS011;23098;48.054;10.636;2024-02-28T10:51:25;54.13;;;22.50;;
37203;SDS011;23098;48.054;10.636;2024-02-28T10:56:34;59.40;;;24.75;;
37203;SDS011;23098;48.054;10.636;2024-02-28T10:59:00;56.47;;;21.98;;
37203;SDS011;23098;48.054;10.636;2024-02-28T11:01:27;60.40;;;24.00;;
37203;SDS011;23098;48.054;10.636;2024-02-28T11:03:53;64.30;;;25.48;;
37203;SDS011;23098;48.054;10.636;2024-02-28T11:06:20;63.97;;;24.30;;
37203;SDS011;23098;48.054;10.636;2024-02-28T11:08:47;60.03;;;22.73;;
37203;SDS011;23098;48.054;10.636;2024-02-28T11:11:21;63.83;;;24.83;;
37203;SDS011;23098;48.054;10.636;2024-02-28T11:13:53;61.97;;;24.58;;
37203;SDS011;23098;48.054;10.636;2024-02-28T11:16:30;61.22;;;22.70;;
37203;SDS011;23098;48.054;10.636;2024-02-28T11:18:57;66.13;;;24.95;;
37203;SDS011;23098;48.054;10.636;2024-02-28T11:21:23;67.32;;;23.75;;
37203;SDS011;23098;48.054;10.636;2024-02-28T11:23:59;70.68;;;26.52;;
37203;SDS011;23098;48.054;10.636;2024-02-28T11:26:26;66.70;;;24.30;;
37203;SDS011;23098;48.054;10.636;2024-02-28T11:28:53;63.30;;;23.77;;
37203;SDS011;23098;48.054;10.636;2024-02-28T11:31:20;61.50;;;21.60;;
37203;SDS011;23098;48.054;10.636;2024-02-28T11:33:46;58.22;;;23.92;;
37203;SDS011;23098;48.054;10.636;2024-02-28T11:36:12;66.95;;;25.20;;
37203;SDS011;23098;48.054;10.636;2024-02-28T11:38:40;65.18;;;24.52;;
37203;SDS011;23098;48.054;10.636;2024-02-28T11:41:06;64.55;;;24.10;;
37203;SDS011;23098;48.054;10.636;2024-02-28T11:43:32;63.90;;;23.85;;
37203;SDS011;23098;48.054;10.636;2024-02-28T11:45:59;60.15;;;23.30;;
37203;SDS011;23098;48.054;10.636;2024-02-28T11:48:25;62.58;;;24.17;;
37203;SDS011;23098;48.054;10.636;2024-02-28T11:50:52;62.08;;;21.90;;
37203;SDS011;23098;48.054;10.636;2024-02-28T11:53:18;64.45;;;24.35;;
37203;SDS011;23098;48.054;10.636;2024-02-28T11:55:45;59.45;;;22.30;;
37203;SDS011;23098;48.054;10.636;2024-02-28T11:58:12;69.20;;;24.77;;
37203;SDS011;23098;48.054;10.636;2024-02-28T12:00:48;67.78;;;23.95;;
37203;SDS011;23098;48.054;10.636;2024-02-28T12:03:14;63.03;;;23.63;;
37203;SDS011;23098;48.054;10.636;2024-02-28T12:05:44;64.67;;;23.37;;
37203;SDS011;23098;48.054;10.636;2024-02-28T12:08:10;58.47;;;22.60;;
37203;SDS011;23098;48.054;10.636;2024-02-28T12:10:36;59.08;;;21.48;;
37203;SDS011;23098;48.054;10.636;2024-02-28T12:13:02;62.03;;;22.60;;
37203;SDS011;23098;48.054;10.636;2024-02-28T12:15:31;60.00;;;20.50;;
37203;SDS011;23098;48.054;10.636;2024-02-28T12:17:58;60.58;;;22.85;;
37203;SDS011;23098;48.054;10.636;2024-02-28T12:20:23;60.20;;;22.88;;
37203;SDS011;23098;48.054;10.636;2024-02-28T12:22:49;58.72;;;22.50;;
37203;SDS011;23098;48.054;10.636;2024-02-28T12:25:14;62.13;;;22.25;;
37203;SDS011;23098;48.054;10.636;2024-02-28T12:27:40;65.65;;;23.13;;
37203;SDS011;23098;48.054;10.636;2024-02-28T12:30:06;63.00;;;24.17;;
37203;SDS011;23098;48.054;10.636;2024-02-28T12:32:32;60.85;;;23.33;;
37203;SDS011;23098;48.054;10.636;2024-02-28T12:34:57;61.60;;;22.30;;
37203;SDS011;23098;48.054;10.636;2024-02-28T12:37:23;63.97;;;23.60;;
37203;SDS011;23098;48.054;10.636;2024-02-28T12:39:48;61.30;;;22.73;;
37203;SDS011;23098;48.054;10.636;2024-02-28T12:42:16;62.95;;;24.40;;
37203;SDS011;23098;48.054;10.636;2024-02-28T12:44:42;62.42;;;23.63;;
37203;SDS011;23098;48.054;10.636;2024-02-28T12:47:12;58.67;;;21.40;;
37203;SDS011;23098;48.054;10.636;2024-02-28T12:49:37;60.63;;;22.85;;
37203;SDS011;23098;48.054;10.636;2024-02-28T12:52:03;55.50;;;21.05;;
37203;SDS011;23098;48.054;10.636;2024-02-28T12:54:29;51.67;;;20.48;;
37203;SDS011;23098;48.054;10.636;2024-02-28T12:56:55;55.40;;;20.95;;
37203;SDS011;23098;48.054;10.636;2024-02-28T12:59:21;47.83;;;20.20;;
37203;SDS011;23098;48.054;10.636;2024-02-28T13:01:46;50.22;;;20.10;;
37203;SDS011;23098;48.054;10.636;2024-02-28T13:04:13;45.53;;;19.70;;
37203;SDS011;23098;48.054;10.636;2024-02-28T13:06:39;54.72;;;21.13;;
37203;SDS011;23098;48.054;10.636;2024-02-28T13:09:05;42.78;;;17.52;;
37203;SDS011;23098;48.054;10.636;2024-02-28T13:11:37;49.92;;;21.45;;
37203;SDS011;23098;48.054;10.636;2024-02-28T13:14:02;44.83;;;18.55;;
37203;SDS011;23098;48.054;10.636;2024-02-28T13:16:28;39.15;;;17.88;;
37203;SDS011;23098;48.054;10.636;2024-02-28T13:18:53;43.72;;;18.70;;
37203;SDS011;23098;48.054;10.636;2024-02-28T13:21:19;47.50;;;19.90;;
37203;SDS011;23098;48.054;10.636;2024-02-28T13:23:45;51.17;;;19.98;;
37203;SDS011;23098;48.054;10.636;2024-02-28T13:26:10;49.78;;;20.70;;
37203;SDS011;23098;48.054;10.636;2024-02-28T13:28:42;56.40;;;21.75;;
37203;SDS011;23098;48.054;10.636;2024-02-28T13:31:11;45.35;;;18.20;;
37203;SDS011;23098;48.054;10.636;2024-02-28T13:33:37;45.05;;;18.05;;
37203;SDS011;23098;48.054;10.636;2024-02-28T13:36:03;52.45;;;19.40;;
37203;SDS011;23098;48.054;10.636;2024-02-28T13:38:29;49.58;;;19.77;;
37203;SDS011;23098;48.054;10.636;2024-02-28T13:40:55;49.47;;;19.80;;
37203;SDS011;23098;48.054;10.636;2024-02-28T13:43:21;47.72;;;18.58;;
37203;SDS011;23098;48.054;10.636;2024-02-28T13:45:47;48.75;;;19.85;;
37203;SDS011;23098;48.054;10.636;2024-02-28T13:48:17;50.70;;;19.10;;
37203;SDS011;23098;48.054;10.636;2024-02-28T13:50:49;48.50;;;18.90;;
37203;SDS011;23098;48.054;10.636;2024-02-28T13:53:15;47.53;;;18.08;;
37203;SDS011;23098;48.054;10.636;2024-02-28T13:55:41;51.05;;;19.75;;
37203;SDS011;23098;48.054;10.636;2024-02-28T13:58:10;43.63;;;15.77;;
37203;SDS011;23098;48.054;10.636;2024-02-28T14:00:36;45.75;;;18.13;;
37203;SDS011;23098;48.054;10.636;2024-02-28T14:03:03;44.50;;;17.60;;
37203;SDS011;23098;48.054;10.636;2024-02-28T14:05:29;49.80;;;18.77;;